createdAt,value
2022-09-16T00:01:35.833Z,4.43
2022-09-16T00:04:04.874Z,4.72
2022-09-16T00:06:33.625Z,4.93
2022-09-16T00:09:02.367Z,5.09
2022-09-16T00:11:36.705Z,5.22
2022-09-16T00:14:05.537Z,5.36
2022-09-16T00:16:34.664Z,5.30
2022-09-16T00:19:04.174Z,5.68
2022-09-16T00:21:33.101Z,5.82
2022-09-16T00:24:02.038Z,6.00
2022-09-16T00:26:30.920Z,6.17
2022-09-16T00:29:00.629Z,6.28
2022-09-16T00:31:29.423Z,6.42
2022-09-16T00:33:58.231Z,6.56
2022-09-16T00:36:27.964Z,6.75
2022-09-16T00:38:56.989Z,6.96
2022-09-16T00:41:34.173Z,7.19
2022-09-16T00:44:06.522Z,7.43
2022-09-16T00:47:01.552Z,7.77
2022-09-16T00:49:32.246Z,8.60
2022-09-16T00:52:04.273Z,9.99
2022-09-16T00:54:36.996Z,11.30
2022-09-16T00:57:09.364Z,12.55
2022-09-16T00:59:44.638Z,13.75
2022-09-16T01:02:18.284Z,14.75
2022-09-16T01:04:57.145Z,15.62
2022-09-16T01:07:37.686Z,16.32
2022-09-16T01:10:07.207Z,16.91
2022-09-16T01:12:37.855Z,17.55
2022-09-16T01:15:08.025Z,18.10
2022-09-16T01:17:49.198Z,18.60
2022-09-16T01:20:48.248Z,19.07
2022-09-16T01:23:38.273Z,19.24
2022-09-16T01:26:30.498Z,19.75
2022-09-16T01:29:25.098Z,20.13
2022-09-16T01:32:21.438Z,20.71
2022-09-16T01:35:05.389Z,21.34
2022-09-16T01:37:44.820Z,21.78
2022-09-16T01:40:33.134Z,22.20
2022-09-16T01:43:16.286Z,22.62
2022-09-16T01:46:05.101Z,22.94
2022-09-16T01:48:49.435Z,23.13
2022-09-16T01:51:42.779Z,23.61
2022-09-16T01:54:23.589Z,23.92
2022-09-16T01:57:00.603Z,24.10
2022-09-16T01:59:43.094Z,24.29
2022-09-16T02:02:51.221Z,24.66
2022-09-16T04:35:25.901Z,36.13
2022-09-16T04:37:55.005Z,35.84
2022-09-16T04:40:23.729Z,35.89
2022-09-16T04:42:52.810Z,35.85
2022-09-16T04:45:21.576Z,35.75
2022-09-16T04:47:59.520Z,35.99
2022-09-16T04:50:28.294Z,36.64
2022-09-16T04:52:57.077Z,37.04
2022-09-16T04:55:25.964Z,37.37
2022-09-16T04:57:54.645Z,37.19
2022-09-16T05:00:23.942Z,37.34
2022-09-16T05:02:55.373Z,37.43
2022-09-16T05:05:24.453Z,36.92
2022-09-16T05:07:53.605Z,36.60
2022-09-16T05:10:22.441Z,36.82
2022-09-16T05:12:54.982Z,36.90
2022-09-16T05:15:23.755Z,37.16
2022-09-16T05:17:52.850Z,37.45
2022-09-16T05:20:21.643Z,37.58
2022-09-16T05:22:51.900Z,37.85
2022-09-16T05:25:20.672Z,37.81
2022-09-16T05:27:49.455Z,37.57
2022-09-16T05:30:21.647Z,37.49
2022-09-16T05:32:55.937Z,37.67
2022-09-16T05:35:25.417Z,37.58
2022-09-16T05:37:54.142Z,36.88
2022-09-16T05:40:23.615Z,36.52
2022-09-16T05:42:52.386Z,36.73
2022-09-16T05:45:25.719Z,36.95
2022-09-16T05:47:56.443Z,37.04
2022-09-16T05:50:25.244Z,37.25
2022-09-16T05:52:54.097Z,37.75
2022-09-16T05:55:22.905Z,37.87
2022-09-16T05:57:51.605Z,38.34
2022-09-16T06:00:21.466Z,38.37
2022-09-16T06:02:50.551Z,38.50
2022-09-16T06:05:19.303Z,38.26
2022-09-16T06:07:48.125Z,38.28
2022-09-16T06:10:17.679Z,38.28
2022-09-16T06:12:46.438Z,38.24
2022-09-16T06:15:15.188Z,38.36
2022-09-16T06:17:43.869Z,37.88
2022-09-16T06:20:15.288Z,37.68
2022-09-16T06:22:44.058Z,37.58
2022-09-16T06:25:12.881Z,37.49
2022-09-16T06:27:41.614Z,37.20
2022-09-16T06:30:10.720Z,36.91
2022-09-16T06:32:40.386Z,36.95
2022-09-16T06:35:09.828Z,37.17
2022-09-16T06:37:38.636Z,37.71
2022-09-16T06:40:08.037Z,37.91
2022-09-16T06:42:36.765Z,37.64
2022-09-16T06:45:07.003Z,36.84
2022-09-16T06:47:37.453Z,33.70
2022-09-16T06:50:06.956Z,31.54
2022-09-16T06:52:35.953Z,29.98
2022-09-16T06:55:05.355Z,30.76
2022-09-16T06:57:34.086Z,32.43
2022-09-16T07:00:05.016Z,33.71
2022-09-16T07:02:34.499Z,32.90
2022-09-16T07:05:03.448Z,31.27
2022-09-16T07:07:33.128Z,30.50
2022-09-16T07:10:01.878Z,31.59
2022-09-16T07:12:32.005Z,32.83
2022-09-16T07:15:00.756Z,32.95
2022-09-16T07:17:31.734Z,32.17
2022-09-16T07:20:01.055Z,31.63
2022-09-16T07:22:33.067Z,31.82
2022-09-16T07:25:02.739Z,30.06
2022-09-16T07:27:32.418Z,28.56
2022-09-16T07:30:04.604Z,27.21
2022-09-16T07:32:36.988Z,25.41
2022-09-16T07:35:06.185Z,23.91
2022-09-16T07:37:40.574Z,22.59
2022-09-16T07:40:11.545Z,21.65
2022-09-16T07:42:42.981Z,20.93
2022-09-16T07:45:11.911Z,20.29
2022-09-16T07:47:40.820Z,20.50
2022-09-16T07:50:09.992Z,22.55
2022-09-16T07:52:38.819Z,25.03
2022-09-16T07:55:09.419Z,27.25
2022-09-16T07:57:38.160Z,28.78
2022-09-16T08:00:08.643Z,29.72
2022-09-16T08:02:40.306Z,29.56
2022-09-16T08:05:10.502Z,28.10
2022-09-16T08:07:39.246Z,25.71
2022-09-16T08:10:08.305Z,23.70
2022-09-16T08:12:38.454Z,22.27
2022-09-16T08:15:08.151Z,21.23
2022-09-16T08:17:37.013Z,20.88
2022-09-16T08:20:07.372Z,20.23
2022-09-16T08:22:36.096Z,19.45
2022-09-16T08:25:05.217Z,18.92
2022-09-16T08:27:37.999Z,18.48
2022-09-16T08:30:07.174Z,18.23
2022-09-16T08:32:36.069Z,17.97
2022-09-16T08:35:05.413Z,17.96
2022-09-16T08:37:36.408Z,17.87
2022-09-16T08:40:06.510Z,17.87
2022-09-16T08:42:47.401Z,17.81
2022-09-16T08:45:41.813Z,17.76
2022-09-16T08:48:28.590Z,17.47
2022-09-16T08:51:01.713Z,17.27
2022-09-16T08:53:46.144Z,16.99
2022-09-16T08:56:18.683Z,16.75
2022-09-16T08:58:51.715Z,16.77
2022-09-16T09:01:44.430Z,16.82
2022-09-16T09:04:14.159Z,16.97
2022-09-16T09:07:01.081Z,17.06
2022-09-16T09:09:48.677Z,17.19
2022-09-16T09:12:24.076Z,17.02
2022-09-16T09:15:15.296Z,16.68
2022-09-16T09:18:28.135Z,16.51
2022-09-16T09:21:34.881Z,16.27
2022-09-16T09:24:26.269Z,16.10
2022-09-16T09:27:04.185Z,15.99
2022-09-16T09:29:56.728Z,15.83
2022-09-16T09:32:48.144Z,15.86
2022-09-16T11:15:09.904Z,11.83
2022-09-16T11:18:17.832Z,11.67
2022-09-16T11:21:26.295Z,11.46
2022-09-16T11:24:07.171Z,11.31
2022-09-16T11:27:08.947Z,11.10
2022-09-16T11:29:58.768Z,10.98
2022-09-16T11:32:36.501Z,10.84
2022-09-16T11:35:18.259Z,10.73
2022-09-16T11:38:13.077Z,10.53
2022-09-16T11:40:53.369Z,10.36
2022-09-16T11:43:22.064Z,10.27
2022-09-16T11:46:38.369Z,10.15
2022-09-16T11:49:10.802Z,10.06
2022-09-16T11:52:08.848Z,9.89
2022-09-16T11:54:46.022Z,9.82
2022-09-16T11:57:18.067Z,9.73
2022-09-16T11:59:59.999Z,9.64
2022-09-16T12:02:47.981Z,9.57
2022-09-16T12:05:25.890Z,9.50
2022-09-16T12:08:13.152Z,9.47
2022-09-16T12:11:05.694Z,9.42
2022-09-16T12:14:05.345Z,9.35
2022-09-16T12:16:54.987Z,9.22
2022-09-16T12:19:56.071Z,9.14
2022-09-16T12:22:37.001Z,9.06
2022-09-16T12:25:13.086Z,8.98
2022-09-16T12:27:51.977Z,8.92
2022-09-16T12:30:31.974Z,8.90
2022-09-16T12:33:24.114Z,8.90
2022-09-16T12:36:25.959Z,8.89
2022-09-16T12:38:54.916Z,8.89
2022-09-16T12:41:46.563Z,8.95
2022-09-16T12:44:34.407Z,8.92
2022-09-16T12:47:35.794Z,8.94
2022-09-16T12:50:28.647Z,8.92
2022-09-16T12:53:12.593Z,8.88
2022-09-16T12:56:03.362Z,8.78
2022-09-16T12:58:31.989Z,8.72
2022-09-16T13:01:21.686Z,8.67
2022-09-16T13:03:57.266Z,8.54
2022-09-16T13:06:37.333Z,8.52
2022-09-16T13:09:48.033Z,8.50
2022-09-16T13:12:44.921Z,8.50
2022-09-16T13:15:34.694Z,8.29
2022-09-16T13:18:19.029Z,8.37
2022-09-16T13:21:06.359Z,8.33
2022-09-16T13:23:41.963Z,8.30
2022-09-16T13:26:11.285Z,8.38
2022-09-16T13:28:45.498Z,8.38
2022-09-16T13:31:19.093Z,8.36
2022-09-16T13:34:09.224Z,8.29
2022-09-16T13:36:37.988Z,8.28
2022-09-16T13:39:12.562Z,8.23
2022-09-16T13:41:48.529Z,8.17
2022-09-16T13:44:41.587Z,8.11
2022-09-16T13:47:10.281Z,8.13
2022-09-16T13:49:51.420Z,8.13
2022-09-16T13:52:36.999Z,8.07
2022-09-16T13:55:18.622Z,8.07
2022-09-16T13:58:07.360Z,8.06
2022-09-16T14:01:04.973Z,8.01
2022-09-16T14:03:39.373Z,7.89
2022-09-16T14:06:18.909Z,7.81
2022-09-16T14:08:52.685Z,7.83
2022-09-16T14:12:04.470Z,7.85
2022-09-16T14:14:47.062Z,7.86
2022-09-16T14:17:28.142Z,7.84
2022-09-16T14:20:00.983Z,7.82
2022-09-16T14:22:31.651Z,7.81
2022-09-16T14:25:06.567Z,7.79
2022-09-16T14:27:44.324Z,7.83
2022-09-16T14:30:20.447Z,7.73
2022-09-16T14:32:49.916Z,7.69
2022-09-16T14:35:25.387Z,7.60
2022-09-16T14:38:02.952Z,7.55
2022-09-16T14:40:32.102Z,7.49
2022-09-16T14:43:08.449Z,7.45
2022-09-16T14:45:38.893Z,7.43
2022-09-16T14:48:10.623Z,7.45
2022-09-16T14:50:43.402Z,7.45
2022-09-16T14:53:34.736Z,7.47
2022-09-16T14:56:05.781Z,7.52
2022-09-16T14:58:36.613Z,7.50
2022-09-16T15:01:15.403Z,7.50
2022-09-16T15:03:44.239Z,7.45
2022-09-16T15:06:17.705Z,7.41
2022-09-16T15:08:55.637Z,7.31
2022-09-16T15:11:47.176Z,7.34
2022-09-16T15:14:18.304Z,7.27
2022-09-16T15:16:51.180Z,7.18
2022-09-16T15:19:49.272Z,7.16
2022-09-16T15:22:18.766Z,7.10
2022-09-16T15:24:53.352Z,7.05
2022-09-16T15:27:30.647Z,7.04
2022-09-16T15:30:01.413Z,6.98
2022-09-16T15:32:32.749Z,6.89
2022-09-16T15:35:14.996Z,6.83
2022-09-16T15:37:44.040Z,6.77
2022-09-16T15:40:27.688Z,6.80
2022-09-16T15:43:05.682Z,6.76
2022-09-16T15:45:34.594Z,6.64
2022-09-16T15:48:12.219Z,6.61
2022-09-16T15:50:53.633Z,6.62
2022-09-16T15:53:36.825Z,6.68
2022-09-16T15:56:21.842Z,6.67
2022-09-16T15:58:55.787Z,6.59
2022-09-16T16:01:52.971Z,6.71
2022-09-16T16:04:30.465Z,6.73
2022-09-16T16:07:03.052Z,6.74
2022-09-16T16:09:35.498Z,6.78
2022-09-16T16:12:18.491Z,6.76
2022-09-16T16:14:47.515Z,6.77
2022-09-16T16:17:20.110Z,6.70
2022-09-16T16:19:51.163Z,6.59
2022-09-16T16:22:21.153Z,6.78
2022-09-16T16:24:49.900Z,6.72
2022-09-16T16:27:18.763Z,6.85
2022-09-16T16:29:47.586Z,6.78
2022-09-16T16:32:17.402Z,6.83
2022-09-16T16:34:50.552Z,6.85
2022-09-16T16:37:44.419Z,6.81
2022-09-16T16:40:10.063Z,6.67
2022-09-16T16:42:40.804Z,6.73
2022-09-16T16:45:10.077Z,6.70
2022-09-16T16:47:39.032Z,6.63
2022-09-16T16:50:08.241Z,6.59
2022-09-16T16:52:37.278Z,6.62
2022-09-16T16:55:07.389Z,6.48
2022-09-16T16:57:36.134Z,6.51
2022-09-16T17:00:07.518Z,6.37
2022-09-16T17:02:36.501Z,6.13
2022-09-16T17:05:06.268Z,5.96
2022-09-16T17:07:35.138Z,5.90
2022-09-16T17:10:04.304Z,5.85
2022-09-16T17:12:33.494Z,5.84
2022-09-16T17:15:02.364Z,5.73
2022-09-16T17:17:32.431Z,5.67
2022-09-16T17:20:01.619Z,5.61
2022-09-16T17:22:31.488Z,5.64
2022-09-16T17:25:00.264Z,5.65
2022-09-16T17:27:30.241Z,5.54
2022-09-16T17:30:01.632Z,5.58
2022-09-16T17:32:32.099Z,5.54
2022-09-16T17:35:00.840Z,5.50
2022-09-16T17:37:31.630Z,5.46
2022-09-16T17:40:00.339Z,5.36
2022-09-16T17:42:29.267Z,5.36
2022-09-16T17:44:58.614Z,5.19
2022-09-16T17:47:27.854Z,5.21
2022-09-16T17:49:57.347Z,5.14
2022-09-16T17:52:26.380Z,5.14
2022-09-16T17:54:55.478Z,5.07
2022-09-16T17:57:28.000Z,4.95
2022-09-16T17:59:59.895Z,4.88
2022-09-16T18:02:29.303Z,4.95
2022-09-16T18:04:58.226Z,4.98
2022-09-16T18:07:27.041Z,4.96
2022-09-16T18:09:55.764Z,4.88
2022-09-16T18:12:24.532Z,4.78
2022-09-16T18:14:53.332Z,4.70
2022-09-16T18:17:22.390Z,4.57
2022-09-16T18:19:51.129Z,4.51
2022-09-16T18:22:23.248Z,4.51
2022-09-16T18:24:53.649Z,4.34
2022-09-16T18:27:22.544Z,4.37
2022-09-16T18:29:51.220Z,4.32
2022-09-16T18:32:19.990Z,4.26
2022-09-16T18:34:48.748Z,4.18
2022-09-16T18:37:17.637Z,4.00
2022-09-16T18:39:47.191Z,3.87
2022-09-16T18:42:16.039Z,3.72
2022-09-16T18:44:44.765Z,3.68
2022-09-16T18:47:13.497Z,3.75
2022-09-16T18:49:42.155Z,3.77
2022-09-16T18:52:10.794Z,3.78
2022-09-16T18:54:39.604Z,3.88
2022-09-16T18:57:09.840Z,3.87
2022-09-16T18:59:38.527Z,3.86
2022-09-16T19:02:11.709Z,3.87
2022-09-16T19:04:42.800Z,3.89
2022-09-16T19:07:14.553Z,3.79
2022-09-16T19:09:45.365Z,3.93
2022-09-16T19:12:14.321Z,3.90
2022-09-16T19:14:43.036Z,3.85
2022-09-16T19:17:11.792Z,3.81
2022-09-16T19:19:40.580Z,3.80
2022-09-16T19:22:09.411Z,3.82
2022-09-16T19:24:38.958Z,3.85
2022-09-16T19:27:07.677Z,3.88
2022-09-16T19:29:37.122Z,3.91
2022-09-16T19:32:06.068Z,3.88
2022-09-16T19:34:34.850Z,3.90
2022-09-16T19:37:03.615Z,3.91
2022-09-16T19:39:32.336Z,3.95
2022-09-16T19:42:04.105Z,3.93
2022-09-16T19:44:33.150Z,3.92
2022-09-16T19:47:02.608Z,3.86
2022-09-16T19:49:31.381Z,3.94
2022-09-16T19:52:00.214Z,3.92
2022-09-16T19:54:29.034Z,3.94
2022-09-16T19:56:57.749Z,3.94
2022-09-16T19:59:26.571Z,3.92
2022-09-16T20:01:57.899Z,3.94
2022-09-16T20:04:26.914Z,3.99
2022-09-16T20:06:55.635Z,4.02
2022-09-16T20:09:24.655Z,4.00
2022-09-16T20:11:53.351Z,3.95
2022-09-16T20:14:22.492Z,4.01
2022-09-16T20:16:52.488Z,4.02
2022-09-16T20:19:21.794Z,4.03
2022-09-16T20:21:50.635Z,4.05
2022-09-16T20:24:23.536Z,4.05
2022-09-16T20:26:54.337Z,3.98
2022-09-16T20:29:23.093Z,3.87
2022-09-16T20:31:55.499Z,3.87
2022-09-16T20:34:24.808Z,3.81
2022-09-16T20:36:53.638Z,3.79
2022-09-16T20:39:23.435Z,3.77
2022-09-16T20:41:53.158Z,3.66
2022-09-16T20:44:22.022Z,3.55
2022-09-16T20:46:50.919Z,3.55
2022-09-16T20:49:23.571Z,3.49
2022-09-16T20:51:52.507Z,3.50
2022-09-16T20:54:21.301Z,3.51
2022-09-16T20:56:50.642Z,3.52
2022-09-16T20:59:20.818Z,3.43
2022-09-16T21:01:50.627Z,3.40
2022-09-16T21:04:21.186Z,3.33
2022-09-16T21:06:50.073Z,3.35
2022-09-16T21:09:19.632Z,3.26
2022-09-16T21:11:50.368Z,3.35
2022-09-16T21:14:22.046Z,3.35
2022-09-16T21:16:52.113Z,3.33
2022-09-16T21:19:20.904Z,3.30
2022-09-16T21:21:49.942Z,3.18
2022-09-16T21:24:18.775Z,3.25
2022-09-16T21:26:47.513Z,3.16
2022-09-16T21:29:21.467Z,3.13
2022-09-16T21:31:50.445Z,2.98
2022-09-16T21:34:21.494Z,3.00
2022-09-16T21:36:51.381Z,3.00
2022-09-16T21:39:22.392Z,2.97
2022-09-16T21:41:51.604Z,2.85
2022-09-16T21:44:20.450Z,2.88
2022-09-16T21:46:50.314Z,2.86
2022-09-16T21:49:25.654Z,2.75
2022-09-16T21:51:56.819Z,2.69
2022-09-16T21:54:27.086Z,2.73
2022-09-16T21:56:56.053Z,2.72
2022-09-16T21:59:26.206Z,2.88
2022-09-16T22:01:57.606Z,3.02
2022-09-16T22:04:30.448Z,3.18
2022-09-16T22:06:59.393Z,3.28
2022-09-16T22:09:28.130Z,3.41
2022-09-16T22:11:57.343Z,3.58
2022-09-16T22:14:26.108Z,3.76
2022-09-16T22:16:54.897Z,3.85
2022-09-16T22:19:23.595Z,4.00
2022-09-16T22:21:52.429Z,4.14
2022-09-16T22:24:21.869Z,4.22
2022-09-16T22:26:52.270Z,4.39
2022-09-16T22:29:21.296Z,4.55
2022-09-16T22:31:50.206Z,4.71
2022-09-16T22:34:19.120Z,4.88
2022-09-16T22:36:48.066Z,5.07
2022-09-16T22:39:20.367Z,5.27
2022-09-16T22:41:49.327Z,5.40
2022-09-16T22:44:18.107Z,5.53
2022-09-16T22:46:48.672Z,5.62
2022-09-16T22:49:17.672Z,5.68
2022-09-16T22:51:46.679Z,5.74
2022-09-16T22:54:16.499Z,5.81
2022-09-16T22:56:45.425Z,5.81
2022-09-16T22:59:21.383Z,5.90
2022-09-16T23:01:50.955Z,5.94
2022-09-16T23:04:20.135Z,6.00
2022-09-16T23:06:48.981Z,6.04
2022-09-16T23:09:17.842Z,6.07
2022-09-16T23:11:46.541Z,6.13
2022-09-16T23:14:27.146Z,6.14
2022-09-16T23:16:55.908Z,6.24
2022-09-16T23:19:24.709Z,6.29
2022-09-16T23:21:53.521Z,6.34
2022-09-16T23:24:22.667Z,6.38
2022-09-16T23:26:51.395Z,6.41
2022-09-16T23:29:20.257Z,6.43
2022-09-16T23:31:51.136Z,6.47
2022-09-16T23:34:22.253Z,6.48
2022-09-16T23:36:51.400Z,6.51
2022-09-16T23:39:20.256Z,6.55
2022-09-16T23:41:49.998Z,6.58
2022-09-16T23:44:18.813Z,6.57
2022-09-16T23:46:47.629Z,6.56
2022-09-16T23:49:19.860Z,6.58
2022-09-16T23:51:48.988Z,6.57
2022-09-16T23:54:18.505Z,6.56
2022-09-16T23:56:47.522Z,6.56
2022-09-16T23:59:16.280Z,6.61
